Dyckesville, Wisconsin
Current Conditions -  °F | °C
As of 8:53 AM on Friday 31 Oct 2014 (Local Time) from KGRB Reporting Station
Overcast Overcast  
Wind Chill: 22°   Ceiling: 3700
Heat Index: 34°   Visibility: 10mi
Dew Point: 23°   Wind: 24mph
Humidity: 64%   Direction: 360°N
Pressure: 30.25"   Gusts: 39mph
Location:  44.5424°N, 87.7165°W
Report Text: KGRB 311353Z 36021G34KT 10SM BKN037 OVC043 01/M05 A3025 RMK AO2 PK WND 36034/1347 SLP251 T00111050
Loading
Personal Weather Stations






























Interactive Weather Map
Tropical Storm Tracking
New forecast layout! Learn more

10-Day Weather Forecast

Advertisements
Track Severe Weather on mobile